sensor_id;sensor_type;location;lat;lon;timestamp;P1;durP1;ratioP1;P2;durP2;ratioP2
35084;SDS011;21267;51.032;6.998;2022-07-23T11:02:23;11.18;;;10.07;;
35084;SDS011;21267;51.032;6.998;2022-07-23T11:04:51;10.45;;;9.32;;
35084;SDS011;21267;51.032;6.998;2022-07-23T11:07:18;11.77;;;10.55;;
35084;SDS011;21267;51.032;6.998;2022-07-23T11:09:47;11.63;;;10.50;;
35084;SDS011;21267;51.032;6.998;2022-07-23T11:15:07;14.13;;;12.07;;
35084;SDS011;21267;51.032;6.998;2022-07-23T11:20:20;13.57;;;11.55;;
35084;SDS011;21267;51.032;6.998;2022-07-23T11:22:54;13.27;;;10.57;;
35084;SDS011;21267;51.032;6.998;2022-07-23T11:27:49;11.53;;;10.37;;
35084;SDS011;21267;51.032;6.998;2022-07-23T11:32:53;11.20;;;10.10;;
35084;SDS011;21267;51.032;6.998;2022-07-23T11:35:35;11.65;;;9.75;;
35084;SDS011;21267;51.032;6.998;2022-07-23T11:38:14;10.57;;;9.48;;
35084;SDS011;21267;51.032;6.998;2022-07-23T11:40:45;9.52;;;8.68;;
35084;SDS011;21267;51.032;6.998;2022-07-23T11:43:14;11.40;;;9.90;;
35084;SDS011;21267;51.032;6.998;2022-07-23T11:45:43;11.63;;;9.50;;
35084;SDS011;21267;51.032;6.998;2022-07-23T11:48:19;9.18;;;8.23;;
35084;SDS011;21267;51.032;6.998;2022-07-23T11:50:57;8.48;;;7.68;;
35084;SDS011;21267;51.032;6.998;2022-07-23T11:53:24;8.38;;;7.57;;
35084;SDS011;21267;51.032;6.998;2022-07-23T11:55:53;9.15;;;7.93;;
35084;SDS011;21267;51.032;6.998;2022-07-23T11:58:21;7.85;;;7.10;;
35084;SDS011;21267;51.032;6.998;2022-07-23T12:00:47;7.80;;;6.95;;
35084;SDS011;21267;51.032;6.998;2022-07-23T12:03:14;6.63;;;6.03;;
35084;SDS011;21267;51.032;6.998;2022-07-23T12:05:41;8.48;;;6.55;;
35084;SDS011;21267;51.032;6.998;2022-07-23T12:08:09;8.63;;;7.80;;
35084;SDS011;21267;51.032;6.998;2022-07-23T12:10:42;8.05;;;7.32;;
35084;SDS011;21267;51.032;6.998;2022-07-23T12:13:18;6.80;;;6.10;;
35084;SDS011;21267;51.032;6.998;2022-07-23T12:15:53;7.60;;;6.63;;
35084;SDS011;21267;51.032;6.998;2022-07-23T12:18:26;7.70;;;6.00;;
35084;SDS011;21267;51.032;6.998;2022-07-23T12:20:55;8.23;;;7.43;;
35084;SDS011;21267;51.032;6.998;2022-07-23T12:23:25;8.02;;;6.97;;
35084;SDS011;21267;51.032;6.998;2022-07-23T12:25:53;6.45;;;5.85;;
35084;SDS011;21267;51.032;6.998;2022-07-23T12:28:30;6.60;;;5.78;;
35084;SDS011;21267;51.032;6.998;2022-07-23T12:30:59;8.77;;;5.88;;
35084;SDS011;21267;51.032;6.998;2022-07-23T12:35:55;6.65;;;5.35;;
35084;SDS011;21267;51.032;6.998;2022-07-23T12:38:25;5.45;;;4.95;;
35084;SDS011;21267;51.032;6.998;2022-07-23T12:43:24;5.40;;;4.90;;
35084;SDS011;21267;51.032;6.998;2022-07-23T12:48:32;8.48;;;5.00;;
35084;SDS011;21267;51.032;6.998;2022-07-23T12:51:07;7.82;;;6.13;;
35084;SDS011;21267;51.032;6.998;2022-07-23T12:53:55;5.78;;;5.15;;
35084;SDS011;21267;51.032;6.998;2022-07-23T12:56:31;5.82;;;4.90;;
35084;SDS011;21267;51.032;6.998;2022-07-23T12:59:06;7.07;;;5.55;;
35084;SDS011;21267;51.032;6.998;2022-07-23T13:01:44;7.50;;;5.97;;
35084;SDS011;21267;51.032;6.998;2022-07-23T13:04:20;6.68;;;6.00;;
35084;SDS011;21267;51.032;6.998;2022-07-23T13:06:49;7.57;;;6.22;;
35084;SDS011;21267;51.032;6.998;2022-07-23T13:09:19;6.18;;;5.63;;
35084;SDS011;21267;51.032;6.998;2022-07-23T13:11:48;6.63;;;5.85;;
35084;SDS011;21267;51.032;6.998;2022-07-23T13:14:16;6.10;;;5.50;;
35084;SDS011;21267;51.032;6.998;2022-07-23T13:16:47;9.23;;;5.28;;
35084;SDS011;21267;51.032;6.998;2022-07-23T13:19:17;5.78;;;5.22;;
35084;SDS011;21267;51.032;6.998;2022-07-23T13:21:46;8.23;;;6.22;;
35084;SDS011;21267;51.032;6.998;2022-07-23T13:26:40;6.18;;;4.82;;
35084;SDS011;21267;51.032;6.998;2022-07-23T13:29:07;4.40;;;3.83;;
35084;SDS011;21267;51.032;6.998;2022-07-23T13:31:36;13.70;;;6.22;;
35084;SDS011;21267;51.032;6.998;2022-07-23T13:34:04;5.00;;;4.00;;
35084;SDS011;21267;51.032;6.998;2022-07-23T13:36:33;13.35;;;7.15;;
35084;SDS011;21267;51.032;6.998;2022-07-23T13:39:03;5.60;;;4.05;;
35084;SDS011;21267;51.032;6.998;2022-07-23T13:41:31;5.13;;;3.65;;
35084;SDS011;21267;51.032;6.998;2022-07-23T13:43:59;4.32;;;3.63;;
35084;SDS011;21267;51.032;6.998;2022-07-23T13:46:26;6.57;;;4.25;;
35084;SDS011;21267;51.032;6.998;2022-07-23T13:48:53;4.40;;;3.92;;
35084;SDS011;21267;51.032;6.998;2022-07-23T13:51:20;7.57;;;3.97;;
35084;SDS011;21267;51.032;6.998;2022-07-23T13:53:49;3.72;;;3.40;;
35084;SDS011;21267;51.032;6.998;2022-07-23T13:56:16;8.60;;;4.00;;
35084;SDS011;21267;51.032;6.998;2022-07-23T13:58:43;4.50;;;3.50;;
35084;SDS011;21267;51.032;6.998;2022-07-23T14:01:09;3.50;;;3.20;;
35084;SDS011;21267;51.032;6.998;2022-07-23T14:03:36;7.72;;;4.15;;
35084;SDS011;21267;51.032;6.998;2022-07-23T14:08:42;5.05;;;3.33;;
35084;SDS011;21267;51.032;6.998;2022-07-23T14:11:10;5.20;;;3.03;;
35084;SDS011;21267;51.032;6.998;2022-07-23T14:13:37;3.40;;;3.10;;
35084;SDS011;21267;51.032;6.998;2022-07-23T14:16:03;6.85;;;3.35;;
35084;SDS011;21267;51.032;6.998;2022-07-23T14:18:40;3.65;;;3.05;;
35084;SDS011;21267;51.032;6.998;2022-07-23T14:21:06;5.85;;;3.28;;
35084;SDS011;21267;51.032;6.998;2022-07-23T14:23:34;4.75;;;3.40;;
35084;SDS011;21267;51.032;6.998;2022-07-23T14:26:01;3.47;;;2.92;;
35084;SDS011;21267;51.032;6.998;2022-07-23T14:28:34;3.33;;;2.55;;
35084;SDS011;21267;51.032;6.998;2022-07-23T14:31:01;4.22;;;2.92;;
35084;SDS011;21267;51.032;6.998;2022-07-23T14:33:28;3.42;;;2.92;;
35084;SDS011;21267;51.032;6.998;2022-07-23T14:35:55;3.45;;;2.90;;
35084;SDS011;21267;51.032;6.998;2022-07-23T14:38:22;4.20;;;3.20;;
35084;SDS011;21267;51.032;6.998;2022-07-23T14:40:49;3.10;;;2.78;;
35084;SDS011;21267;51.032;6.998;2022-07-23T14:43:15;6.13;;;3.20;;
35084;SDS011;21267;51.032;6.998;2022-07-23T14:45:43;3.55;;;2.35;;
35084;SDS011;21267;51.032;6.998;2022-07-23T14:48:14;7.20;;;3.08;;
35084;SDS011;21267;51.032;6.998;2022-07-23T14:53:07;4.25;;;2.78;;
35084;SDS011;21267;51.032;6.998;2022-07-23T14:55:34;6.72;;;3.20;;
35084;SDS011;21267;51.032;6.998;2022-07-23T14:58:01;2.65;;;2.40;;
35084;SDS011;21267;51.032;6.998;2022-07-23T15:05:21;8.00;;;3.65;;
35084;SDS011;21267;51.032;6.998;2022-07-23T15:07:50;7.40;;;4.35;;
35084;SDS011;21267;51.032;6.998;2022-07-23T15:10:17;3.50;;;2.60;;
35084;SDS011;21267;51.032;6.998;2022-07-23T15:12:47;6.80;;;4.22;;
35084;SDS011;21267;51.032;6.998;2022-07-23T15:15:15;2.60;;;2.30;;
35084;SDS011;21267;51.032;6.998;2022-07-23T15:17:43;2.65;;;1.95;;
35084;SDS011;21267;51.032;6.998;2022-07-23T15:20:10;4.53;;;2.72;;
35084;SDS011;21267;51.032;6.998;2022-07-23T15:25:04;4.63;;;3.35;;
35084;SDS011;21267;51.032;6.998;2022-07-23T15:27:32;2.67;;;2.45;;
35084;SDS011;21267;51.032;6.998;2022-07-23T15:29:59;3.65;;;2.47;;
35084;SDS011;21267;51.032;6.998;2022-07-23T15:32:26;17.80;;;9.68;;
35084;SDS011;21267;51.032;6.998;2022-07-23T15:37:20;5.90;;;3.20;;
35084;SDS011;21267;51.032;6.998;2022-07-23T15:39:46;4.32;;;3.33;;
35084;SDS011;21267;51.032;6.998;2022-07-23T15:42:13;4.55;;;3.30;;
35084;SDS011;21267;51.032;6.998;2022-07-23T15:44:40;4.00;;;3.03;;
35084;SDS011;21267;51.032;6.998;2022-07-23T15:47:13;5.30;;;3.45;;
35084;SDS011;21267;51.032;6.998;2022-07-23T15:49:42;5.82;;;3.28;;
35084;SDS011;21267;51.032;6.998;2022-07-23T15:52:10;4.20;;;2.42;;
35084;SDS011;21267;51.032;6.998;2022-07-23T15:54:38;3.72;;;2.67;;
35084;SDS011;21267;51.032;6.998;2022-07-23T15:57:06;5.38;;;3.22;;
35084;SDS011;21267;51.032;6.998;2022-07-23T15:59:33;4.55;;;2.75;;
35084;SDS011;21267;51.032;6.998;2022-07-23T16:02:00;3.92;;;2.60;;
35084;SDS011;21267;51.032;6.998;2022-07-23T16:04:27;4.47;;;3.28;;
35084;SDS011;21267;51.032;6.998;2022-07-23T16:06:54;4.20;;;2.97;;
35084;SDS011;21267;51.032;6.998;2022-07-23T16:09:22;3.75;;;2.80;;
35084;SDS011;21267;51.032;6.998;2022-07-23T16:11:49;3.08;;;2.72;;
35084;SDS011;21267;51.032;6.998;2022-07-23T16:14:16;4.47;;;3.85;;
35084;SDS011;21267;51.032;6.998;2022-07-23T16:16:43;3.80;;;3.28;;
35084;SDS011;21267;51.032;6.998;2022-07-23T16:21:36;5.78;;;4.57;;
35084;SDS011;21267;51.032;6.998;2022-07-23T16:24:03;4.45;;;3.88;;
35084;SDS011;21267;51.032;6.998;2022-07-23T16:26:30;5.45;;;3.58;;
35084;SDS011;21267;51.032;6.998;2022-07-23T16:28:57;3.83;;;3.50;;
35084;SDS011;21267;51.032;6.998;2022-07-23T16:33:52;5.70;;;3.67;;
35084;SDS011;21267;51.032;6.998;2022-07-23T16:36:21;4.30;;;3.20;;
35084;SDS011;21267;51.032;6.998;2022-07-23T16:38:49;6.13;;;3.70;;
35084;SDS011;21267;51.032;6.998;2022-07-23T16:43:43;5.05;;;3.45;;
35084;SDS011;21267;51.032;6.998;2022-07-23T16:46:10;3.25;;;2.90;;
35084;SDS011;21267;51.032;6.998;2022-07-23T16:48:37;3.20;;;2.90;;
35084;SDS011;21267;51.032;6.998;2022-07-23T16:51:04;3.70;;;3.30;;
35084;SDS011;21267;51.032;6.998;2022-07-23T16:53:33;5.13;;;3.63;;
35084;SDS011;21267;51.032;6.998;2022-07-23T16:56:01;3.88;;;3.05;;
35084;SDS011;21267;51.032;6.998;2022-07-23T16:58:29;11.73;;;7.32;;
35084;SDS011;21267;51.032;6.998;2022-07-23T17:00:56;7.22;;;4.95;;
35084;SDS011;21267;51.032;6.998;2022-07-23T17:03:23;4.95;;;3.45;;
35084;SDS011;21267;51.032;6.998;2022-07-23T17:05:51;3.33;;;3.03;;
35084;SDS011;21267;51.032;6.998;2022-07-23T17:08:18;11.82;;;6.32;;
35084;SDS011;21267;51.032;6.998;2022-07-23T17:10:45;17.65;;;9.75;;
35084;SDS011;21267;51.032;6.998;2022-07-23T17:13:12;7.80;;;4.85;;
35084;SDS011;21267;51.032;6.998;2022-07-23T17:15:39;4.82;;;3.00;;
35084;SDS011;21267;51.032;6.998;2022-07-23T17:18:05;8.88;;;4.68;;
35084;SDS011;21267;51.032;6.998;2022-07-23T17:20:32;6.32;;;4.22;;
35084;SDS011;21267;51.032;6.998;2022-07-23T17:22:59;6.35;;;4.38;;
35084;SDS011;21267;51.032;6.998;2022-07-23T17:25:28;6.68;;;4.72;;
35084;SDS011;21267;51.032;6.998;2022-07-23T17:27:55;9.45;;;5.40;;
35084;SDS011;21267;51.032;6.998;2022-07-23T17:30:22;5.55;;;3.92;;
35084;SDS011;21267;51.032;6.998;2022-07-23T17:32:49;4.20;;;3.80;;
35084;SDS011;21267;51.032;6.998;2022-07-23T17:35:15;18.10;;;10.32;;
35084;SDS011;21267;51.032;6.998;2022-07-23T17:37:44;7.85;;;5.07;;
35084;SDS011;21267;51.032;6.998;2022-07-23T17:40:10;7.50;;;3.70;;
35084;SDS011;21267;51.032;6.998;2022-07-23T17:42:37;7.05;;;4.50;;
35084;SDS011;21267;51.032;6.998;2022-07-23T17:45:05;4.43;;;3.60;;
35084;SDS011;21267;51.032;6.998;2022-07-23T17:47:33;4.93;;;3.47;;
35084;SDS011;21267;51.032;6.998;2022-07-23T17:50:00;4.80;;;3.47;;
35084;SDS011;21267;51.032;6.998;2022-07-23T17:52:27;3.08;;;2.70;;
